• Join FlightAware (Why Join?)
  • Login
  • US Flag 
02:42PM EDT


 

Airport Tracker/Info


-or-


 

Live Flight TrackerFlight Track Log ✈ AWI3833 ✈ 30-Jul-2013 ✈ KSYR - KPHL

Flight Track Log - Related Links

Times and Time Zones

All times are in EDT time to prevent confusion due to time zone crossing. See the AWI3833 flight status page for this flight to view local times or setup timezone preferences in your user account.

Time Position Orientation Groundspeed Altitude Reporting Facility
EDT Latitude Longitude Course Direction KTS MPH feet Rate Location/Type
06:13PM 43.0964 -76.2194 260° West 196 226 4,200  Level Boston Center
06:15PM 42.8951 -76.3479 223° Southwest  Level FlightAware Approximate
06:15PM 43.0178 -76.3153 222° Southwest 212 244 9,000  Level New York Center
06:16PM 42.8266 -76.4334 223° Southwest  Level FlightAware Approximate
06:16PM 42.9528 -76.3692 211° Southwest 246 283 10,000  Level New York Center
06:17PM 42.7508 -76.5050 210° Southwest  Level FlightAware Approximate
06:17PM 42.8753 -76.4275 209° Southwest 292 336 10,900  Level New York Center
06:18PM 42.7994 -76.4886 211° Southwest 314 361 12,000 540 Climbing New York Center
06:19PM 42.7239 -76.5469 210° Southwest 324 373 12,000  Level New York Center
06:20PM 42.6481 -76.6050 209° Southwest 324 373 12,000 960 Level New York Center
06:21PM 42.5725 -76.6631 210° Southwest 324 373 14,000 960 Climbing New York Center
06:22PM 42.4831 -76.6633 180° South 317 365 14,000  Level New York Center
06:23PM 42.3989 -76.5942 149° Southeast 309 356 14,000  Level New York Center
06:24PM 42.3108 -76.5244 150° Southeast 322 371 14,000  Level New York Center
06:25PM 42.2344 -76.4647 150° Southeast 336 387 14,000  Level New York Center
06:26PM 42.1522 -76.3989 149° Southeast 341 392 14,000  Level New York Center
06:27PM 42.0703 -76.3303 148° Southeast 341 392 14,000  Level New York Center
06:28PM 41.9858 -76.2647 150° Southeast 346 398 14,000  Level New York Center
06:29PM 41.9344 -76.1600 123° Southeast 327 376 14,000 -180 Level New York Center
06:30PM 41.8919 -76.0367 115° Southeast 332 382 13,700 -660 Descending New York Center
06:31PM 41.8131 -75.9833 153° Southeast 310 357 12,700 -900 Descending New York Center
06:32PM 41.7297 -75.9378 158° South 318 366 12,000 -360 Descending New York Center
06:33PM 41.6503 -75.8956 158° South 333 383 12,000  Level New York Center
06:34PM 41.5628 -75.8472 158° South 339 390 12,000  Level New York Center
06:35PM 41.4775 -75.7994 157° South 339 390 12,000  Level New York Center
06:36PM 41.3919 -75.7514 157° South 339 390 12,000 -360 Level New York Center
06:37PM 41.3064 -75.7092 160° South 339 390 11,400 -900 Descending New York Center
06:38PM 41.2111 -75.6911 172° South 327 376 10,200 -720 Descending New York Center
06:39PM 41.1258 -75.6878 178° South 315 362 10,000 -120 Descending New York Center
06:40PM 41.0364 -75.6894 181° South 320 368 10,000  Level New York Center
06:41PM 40.9489 -75.6886 180° South 325 374 10,000  Level New York Center
06:42PM 40.8614 -75.6878 180° South 325 374 10,000  Level New York Center
06:43PM 40.7894 -75.6608 164° South 317 365 10,000  Level New York Center
06:44PM 40.7125 -75.6114 154° Southeast 308 354 10,000  Level New York Center
06:45PM 40.6272 -75.5536 153° Southeast 313 360 10,000  Level New York Center
06:46PM 40.5500 -75.5017 153° Southeast 313 360 10,000  Level New York Center
06:47PM 40.4872 -75.4592 153° Southeast 318 366 10,000  Level New York Center
06:48PM 40.4058 -75.4072 154° Southeast 302 348 10,000 -780 Level New York Center
06:49PM 40.3325 -75.3669 157° South 276 318 8,500 -1,380 Descending New York Center
06:50PM 40.2717 -75.3247 152° Southeast 254 292 7,300 -1,260 Descending New York Center
06:51PM 40.2364 -75.2625 127° Southeast 241 277 6,000 -1,380 Descending New York Center
06:52PM 40.1753 -75.2289 157° South 235 270 4,600 -1,080 Descending New York Center
06:53PM 40.1125 -75.2356 185° South 210 242 4,000 -300 Descending New York Center
06:54PM 40.0503 -75.2261 173° South 233 268 4,000  Level New York Center
06:55PM 40.0167 -75.2167 168° South 213 245 4,000  Level Philadelphia TRACON
06:56PM 39.9667 -75.1833 153° Southeast 210 242 4,000  Level Philadelphia TRACON
06:57PM 39.9167 -75.1667 166° South 210 242 4,000 -420 Level Philadelphia TRACON
06:58PM 39.8667 -75.1500 166° South 182 209 3,200 -1,200 Descending Philadelphia TRACON
06:59PM 39.8167 -75.1500 180° South 171 197 1,800 -900 Descending Philadelphia TRACON
07:00PM 39.8167 -75.2000 270° West 161 185 1,600 -660 Descending Philadelphia TRACON
07:01PM 39.8500 -75.2167 339° North 130 150 500 -1,140 Descending Philadelphia TRACON
07:03PM 39.8667 -75.2333 247° West  Level FlightAware Approximate